Time;durP1;ratioP1;P1;durP2;ratioP2;P2;SDS_P1;SDS_P2;PMS_P1;PMS_P2;Temp;Humidity;BMP_temperature;BMP_pressure;BME280_temperature;BME280_humidity;BME280_pressure;Samples;Min_cycle;Max_cycle;Signal;HPM_P1;HPM_P2
2023/08/10 00:02:17;;;;;;;8.23;2.50;;;14.50;77.90;;;;;;6165375;23;20024;-85
2023/08/10 00:04:45;;;;;;;7.22;3.03;;;14.50;77.90;;;;;;6160072;23;20021;-86
2023/08/10 00:07:12;;;;;;;7.95;2.47;;;14.50;78.20;;;;;;6160322;23;20028;-86
2023/08/10 00:09:39;;;;;;;6.95;2.45;;;14.30;78.40;;;;;;6159981;23;20028;-85
2023/08/10 00:12:06;;;;;;;5.93;2.33;;;14.30;78.30;;;;;;6136060;23;20025;-85
2023/08/10 00:14:33;;;;;;;6.22;2.15;;;14.30;78.10;;;;;;6136023;23;20021;-86
2023/08/10 00:17:00;;;;;;;6.38;2.58;;;14.30;78.20;;;;;;6135605;23;20046;-85
2023/08/10 00:19:28;;;;;;;6.40;2.20;;;14.20;78.00;;;;;;6184818;23;20089;-86
2023/08/10 00:21:55;;;;;;;5.35;2.00;;;14.30;78.20;;;;;;6160087;23;20064;-86
2023/08/10 00:24:22;;;;;;;6.87;1.93;;;14.30;77.90;;;;;;6184726;23;20123;-86
2023/08/10 00:26:49;;;;;;;5.68;1.80;;;14.30;77.60;;;;;;6185080;23;20064;-86
2023/08/10 00:29:16;;;;;;;6.55;2.15;;;14.30;77.70;;;;;;6160366;23;20017;-86
2023/08/10 00:31:43;;;;;;;5.68;2.00;;;14.30;77.40;;;;;;6160158;23;20024;-86
2023/08/10 00:34:10;;;;;;;6.22;2.08;;;14.30;77.60;;;;;;6159904;23;20369;-86
2023/08/10 00:36:37;;;;;;;5.50;1.70;;;14.20;77.80;;;;;;6184764;23;20021;-85
2023/08/10 00:39:04;;;;;;;6.30;2.30;;;14.20;77.40;;;;;;6184502;23;20013;-86
2023/08/10 00:41:31;;;;;;;6.28;1.92;;;14.10;77.60;;;;;;6184315;23;20016;-85
2023/08/10 00:43:58;;;;;;;7.50;2.50;;;14.00;77.90;;;;;;6159929;23;20013;-85
2023/08/10 00:46:26;;;;;;;5.28;2.03;;;14.00;78.20;;;;;;6184342;23;20039;-86
2023/08/10 00:48:53;;;;;;;6.17;2.13;;;14.00;78.70;;;;;;6160061;23;20126;-85
2023/08/10 00:51:20;;;;;;;6.68;2.50;;;14.00;78.60;;;;;;6184343;23;20398;-86
2023/08/10 00:53:49;;;;;;;6.00;2.38;;;13.90;78.30;;;;;;6186084;23;20044;-86
2023/08/10 00:56:17;;;;;;;6.43;2.08;;;14.00;78.00;;;;;;6135641;23;20021;-85
2023/08/10 00:58:45;;;;;;;5.93;2.13;;;13.90;78.10;;;;;;6184314;23;20440;-86
2023/08/10 01:01:12;;;;;;;5.80;2.20;;;13.80;78.70;;;;;;6159929;23;20063;-85
2023/08/10 01:03:39;;;;;;;6.05;2.20;;;13.80;78.80;;;;;;6135255;23;20025;-85
2023/08/10 01:06:39;;;;;;;6.85;2.30;;;13.60;79.00;;;;;;6184699;23;20043;-86
2023/08/10 01:09:27;;;;;;;6.82;2.22;;;13.60;78.80;;;;;;6184508;23;20017;-85
2023/08/10 01:12:00;;;;;;;7.80;2.17;;;13.60;79.00;;;;;;6184017;23;20081;-86
2023/08/10 01:14:49;;;;;;;5.30;1.80;;;13.60;79.00;;;;;;6184574;23;20021;-85
2023/08/10 01:17:29;;;;;;;8.35;2.45;;;13.50;78.90;;;;;;6159935;23;20517;-85
2023/08/10 01:20:01;;;;;;;6.32;2.30;;;13.50;79.20;;;;;;6185300;23;20068;-86
2023/08/10 01:22:34;;;;;;;7.55;2.58;;;13.40;79.40;;;;;;6159383;23;20052;-86
2023/08/10 01:25:06;;;;;;;7.38;2.53;;;13.40;79.70;;;;;;6159062;23;20009;-86
2023/08/10 01:27:36;;;;;;;6.27;2.10;;;13.30;79.50;;;;;;6159691;23;20419;-86
2023/08/10 01:30:04;;;;;;;7.50;1.92;;;13.30;79.30;;;;;;6158931;23;20021;-86
2023/08/10 01:32:32;;;;;;;6.40;2.22;;;13.30;79.40;;;;;;6135149;23;20079;-85
2023/08/10 01:35:01;;;;;;;6.95;2.70;;;13.20;79.60;;;;;;6135046;23;20096;-86
2023/08/10 01:37:28;;;;;;;5.68;1.63;;;13.10;80.20;;;;;;6159115;23;20355;-85
2023/08/10 01:39:58;;;;;;;8.33;2.20;;;13.10;80.00;;;;;;6135262;23;20076;-86
2023/08/10 01:42:25;;;;;;;7.10;2.40;;;13.10;79.70;;;;;;6184021;23;20017;-85
2023/08/10 01:44:52;;;;;;;6.20;2.15;;;13.10;79.80;;;;;;6135344;23;20407;-85
2023/08/10 01:47:26;;;;;;;6.03;2.22;;;13.00;80.00;;;;;;6183864;23;20388;-86
2023/08/10 01:49:58;;;;;;;7.15;2.38;;;13.10;79.90;;;;;;6160134;23;20157;-86
2023/08/10 01:52:43;;;;;;;6.13;1.90;;;13.10;79.60;;;;;;6135339;23;20049;-86
2023/08/10 01:55:11;;;;;;;6.90;2.55;;;13.20;79.20;;;;;;6148098;23;20452;-85
2023/08/10 01:57:39;;;;;;;7.10;2.60;;;13.10;79.30;;;;;;6129727;23;20044;-86
2023/08/10 02:00:07;;;;;;;7.43;2.17;;;13.00;79.40;;;;;;6134403;23;20017;-85
2023/08/10 02:02:41;;;;;;;7.00;2.45;;;13.00;79.30;;;;;;6160913;23;20021;-86
2023/08/10 02:05:12;;;;;;;8.20;2.57;;;13.00;79.40;;;;;;6207281;23;20021;-85
2023/08/10 02:07:41;;;;;;;8.50;2.47;;;13.00;79.40;;;;;;6189313;23;20024;-86
2023/08/10 02:10:09;;;;;;;8.70;2.53;;;13.00;79.20;;;;;;6214212;23;20020;-86
2023/08/10 02:12:37;;;;;;;6.63;2.47;;;13.00;79.00;;;;;;6214392;23;20052;-86
2023/08/10 02:15:05;;;;;;;5.88;2.17;;;13.00;78.90;;;;;;6164543;23;20031;-86
2023/08/10 02:17:35;;;;;;;11.03;2.77;;;13.00;79.00;;;;;;6164473;23;20021;-86
2023/08/10 02:20:14;;;;;;;8.18;2.58;;;13.00;79.20;;;;;;6214247;23;20017;-86
2023/08/10 02:22:54;;;;;;;7.40;2.92;;;13.00;79.70;;;;;;6189160;23;20510;-86
2023/08/10 02:25:22;;;;;;;7.03;2.90;;;12.90;79.70;;;;;;6164258;23;20021;-85
2023/08/10 02:27:52;;;;;;;7.13;2.90;;;12.90;80.00;;;;;;6164664;23;20104;-85
2023/08/10 02:30:19;;;;;;;6.10;2.53;;;12.80;80.20;;;;;;6214125;23;20074;-85
2023/08/10 02:32:48;;;;;;;7.70;2.95;;;12.80;79.80;;;;;;6164646;23;20025;-86
2023/08/10 02:35:15;;;;;;;7.15;2.72;;;12.80;80.10;;;;;;6189224;23;20103;-86
2023/08/10 02:37:42;;;;;;;6.63;2.53;;;12.80;80.00;;;;;;6214325;23;20021;-86
2023/08/10 02:40:11;;;;;;;7.22;2.60;;;12.80;80.30;;;;;;6164950;23;20023;-86
2023/08/10 02:42:39;;;;;;;7.67;2.53;;;12.80;80.20;;;;;;6189401;23;20107;-85
2023/08/10 02:45:08;;;;;;;6.93;2.78;;;12.80;80.00;;;;;;6189166;23;20091;-86
2023/08/10 02:47:36;;;;;;;7.53;3.10;;;12.80;80.00;;;;;;6164618;23;20031;-85
2023/08/10 02:50:05;;;;;;;6.03;2.30;;;12.70;80.30;;;;;;6164657;23;20021;-85
2023/08/10 02:52:33;;;;;;;7.13;2.90;;;12.70;80.30;;;;;;6164100;23;20032;-85
2023/08/10 02:55:01;;;;;;;7.43;3.10;;;12.60;80.80;;;;;;6189162;23;20021;-85
2023/08/10 02:57:30;;;;;;;7.68;2.80;;;12.50;81.20;;;;;;6189305;23;20021;-85
2023/08/10 02:59:57;;;;;;;7.18;2.63;;;12.50;81.50;;;;;;6186424;23;20099;-86
2023/08/10 03:02:24;;;;;;;8.55;2.22;;;12.40;81.60;;;;;;6180189;23;20025;-86
2023/08/10 03:04:51;;;;;;;8.25;3.10;;;12.40;81.60;;;;;;6193465;23;20406;-86
2023/08/10 03:07:18;;;;;;;8.60;3.00;;;12.50;81.40;;;;;;6134699;23;20103;-85
2023/08/10 03:09:46;;;;;;;8.40;2.78;;;12.50;81.30;;;;;;6159599;23;20092;-86
2023/08/10 03:12:19;;;;;;;7.22;2.38;;;12.40;81.20;;;;;;6160792;23;20024;-86
2023/08/10 03:14:47;;;;;;;8.05;2.72;;;12.40;81.20;;;;;;6136469;23;20348;-85
2023/08/10 03:17:14;;;;;;;6.65;2.38;;;12.50;81.10;;;;;;6160887;23;20495;-86
2023/08/10 03:19:42;;;;;;;6.37;2.30;;;12.50;81.00;;;;;;6161376;23;20104;-86
2023/08/10 03:22:09;;;;;;;7.30;2.50;;;12.50;80.80;;;;;;6161065;23;20021;-86
2023/08/10 03:24:37;;;;;;;7.10;3.17;;;12.50;80.80;;;;;;6185932;23;20021;-85
2023/08/10 03:27:04;;;;;;;6.07;2.50;;;12.50;80.90;;;;;;6136643;23;20032;-86
2023/08/10 03:29:32;;;;;;;8.73;2.83;;;12.40;81.20;;;;;;6136190;23;20044;-86
2023/08/10 03:31:59;;;;;;;5.67;2.40;;;12.30;81.40;;;;;;6135999;23;20052;-86
2023/08/10 03:34:26;;;;;;;7.65;2.40;;;12.30;81.20;;;;;;6160620;23;20021;-85
2023/08/10 03:36:54;;;;;;;5.88;2.30;;;12.30;81.30;;;;;;6185317;23;20078;-86
2023/08/10 03:39:22;;;;;;;5.68;2.42;;;12.30;81.30;;;;;;6136198;23;20350;-86
2023/08/10 03:41:49;;;;;;;8.43;2.50;;;12.30;81.20;;;;;;6136004;23;20017;-86
2023/08/10 03:44:17;;;;;;;8.27;2.30;;;12.30;81.00;;;;;;6160335;23;20020;-85
2023/08/10 03:46:44;;;;;;;6.28;2.72;;;12.30;81.00;;;;;;6135988;23;20075;-86
2023/08/10 03:49:12;;;;;;;5.50;2.10;;;12.30;81.30;;;;;;6185081;23;20028;-85
2023/08/10 03:51:39;;;;;;;6.68;2.38;;;12.30;81.10;;;;;;6160794;23;20025;-85
2023/08/10 03:54:07;;;;;;;9.25;2.40;;;12.40;80.90;;;;;;6160680;23;20017;-86
2023/08/10 03:56:34;;;;;;;7.13;2.17;;;12.40;80.90;;;;;;6160313;23;20040;-85
2023/08/10 03:59:01;;;;;;;6.20;2.47;;;12.40;80.70;;;;;;6160188;23;20021;-86
2023/08/10 04:01:29;;;;;;;5.82;2.42;;;12.40;80.90;;;;;;6160380;23;20067;-86
2023/08/10 04:03:56;;;;;;;6.15;2.38;;;12.40;80.90;;;;;;6138744;23;20135;-85
2023/08/10 04:06:23;;;;;;;6.47;2.55;;;12.30;81.00;;;;;;6160248;23;20017;-86
2023/08/10 04:08:50;;;;;;;6.17;2.47;;;12.30;81.20;;;;;;6184452;23;20391;-85
2023/08/10 04:11:17;;;;;;;5.65;2.33;;;12.30;81.40;;;;;;6160370;23;20028;-86
2023/08/10 04:13:45;;;;;;;6.32;2.97;;;12.30;81.60;;;;;;6135465;23;20038;-86
2023/08/10 04:16:12;;;;;;;7.90;2.90;;;12.20;81.80;;;;;;6159956;23;20080;-86
2023/08/10 04:18:39;;;;;;;7.97;2.83;;;12.20;82.00;;;;;;6159910;23;20009;-86
2023/08/10 04:21:06;;;;;;;6.07;2.60;;;12.20;82.00;;;;;;6185040;23;20352;-85
2023/08/10 04:23:33;;;;;;;6.75;2.85;;;12.10;82.20;;;;;;6159600;23;20104;-86
2023/08/10 04:26:00;;;;;;;7.47;2.92;;;12.10;82.20;;;;;;6184387;23;20025;-86
2023/08/10 04:28:27;;;;;;;6.88;2.60;;;12.10;82.40;;;;;;6159914;23;20049;-86
2023/08/10 04:30:54;;;;;;;6.65;2.80;;;12.10;82.50;;;;;;6135472;23;20076;-85
2023/08/10 04:33:21;;;;;;;7.57;2.50;;;12.10;82.40;;;;;;6186191;23;20020;-86
2023/08/10 04:35:49;;;;;;;6.75;2.75;;;12.20;82.50;;;;;;6159787;23;20025;-85
2023/08/10 04:38:16;;;;;;;6.82;2.80;;;12.20;82.30;;;;;;6160003;23;20091;-86
2023/08/10 04:40:43;;;;;;;6.15;2.80;;;12.30;82.30;;;;;;6184568;23;20013;-86
2023/08/10 04:43:10;;;;;;;7.78;3.17;;;12.30;82.30;;;;;;6184771;23;20040;-85
2023/08/10 04:45:37;;;;;;;7.53;3.30;;;12.30;82.10;;;;;;6159743;23;20079;-85
2023/08/10 04:48:04;;;;;;;6.80;2.70;;;12.30;82.40;;;;;;6159415;23;20107;-86
2023/08/10 04:50:31;;;;;;;6.55;3.17;;;12.20;82.60;;;;;;6160002;23;20084;-85
2023/08/10 04:52:58;;;;;;;7.43;3.28;;;12.20;82.90;;;;;;6159708;23;20017;-85
2023/08/10 04:55:25;;;;;;;6.53;3.10;;;12.30;83.30;;;;;;6159779;23;20020;-85
2023/08/10 04:57:52;;;;;;;9.20;3.17;;;12.30;83.00;;;;;;6184433;23;20379;-85
2023/08/10 05:00:20;;;;;;;7.93;3.00;;;12.30;83.10;;;;;;6135244;23;20017;-86
2023/08/10 05:02:47;;;;;;;6.68;2.80;;;12.30;83.20;;;;;;6184599;23;20017;-85
2023/08/10 05:05:14;;;;;;;7.35;2.45;;;12.30;83.50;;;;;;6164339;23;20115;-86
2023/08/10 05:07:42;;;;;;;7.45;2.97;;;12.40;83.40;;;;;;6189559;23;20020;-85
2023/08/10 05:10:10;;;;;;;6.37;2.77;;;12.50;83.10;;;;;;6216057;23;20074;-85
2023/08/10 05:12:38;;;;;;;8.93;2.65;;;12.50;83.30;;;;;;6188944;23;20332;-86
2023/08/10 05:15:08;;;;;;;4.82;2.13;;;12.70;82.90;;;;;;6214077;23;20016;-85
2023/08/10 05:17:35;;;;;;;7.07;2.60;;;12.80;82.70;;;;;;6164199;23;20024;-85
2023/08/10 05:20:08;;;;;;;8.13;2.63;;;12.90;82.50;;;;;;6164658;23;20424;-85
2023/08/10 05:22:36;;;;;;;6.63;2.43;;;13.00;82.20;;;;;;6164511;23;20016;-86
2023/08/10 05:25:05;;;;;;;6.63;2.30;;;13.10;81.70;;;;;;6164284;23;20509;-85
2023/08/10 05:27:32;;;;;;;6.18;2.33;;;13.10;81.90;;;;;;6189180;23;20103;-85
2023/08/10 05:29:59;;;;;;;6.68;2.95;;;13.20;81.90;;;;;;6164197;23;20074;-86
2023/08/10 05:32:26;;;;;;;9.13;2.63;;;13.40;81.90;;;;;;6213653;23;20044;-85
2023/08/10 05:34:53;;;;;;;6.23;2.83;;;13.50;81.20;;;;;;6213967;23;20016;-86
2023/08/10 05:37:20;;;;;;;8.23;3.10;;;13.70;81.30;;;;;;6189554;23;20012;-86
2023/08/10 05:39:47;;;;;;;6.03;2.55;;;14.00;81.50;;;;;;6189190;23;20020;-85
2023/08/10 05:42:15;;;;;;;6.28;2.63;;;14.10;80.70;;;;;;6214278;23;20013;-86
2023/08/10 05:44:42;;;;;;;7.22;2.67;;;14.20;79.80;;;;;;6189157;23;20391;-85
2023/08/10 05:47:09;;;;;;;7.90;2.70;;;14.30;80.00;;;;;;6188805;23;20013;-86
2023/08/10 05:49:36;;;;;;;8.55;3.72;;;14.50;80.50;;;;;;6189148;23;20059;-86
2023/08/10 05:52:03;;;;;;;13.27;4.97;;;14.60;79.20;;;;;;6215821;23;20112;-85
2023/08/10 05:54:31;;;;;;;11.38;4.93;;;14.60;78.50;;;;;;6164273;23;20473;-85
2023/08/10 05:56:58;;;;;;;17.13;7.75;;;14.70;79.00;;;;;;6188356;23;20024;-85
2023/08/10 05:59:26;;;;;;;14.63;7.03;;;14.80;78.80;;;;;;6188699;23;20023;-85
2023/08/10 06:01:54;;;;;;;14.18;6.65;;;14.90;78.30;;;;;;6213429;23;20013;-86
2023/08/10 06:04:21;;;;;;;15.02;6.75;;;15.00;78.10;;;;;;6201892;23;20384;-85
2023/08/10 06:06:48;;;;;;;14.48;7.10;;;15.20;78.10;;;;;;6184026;23;20395;-86
2023/08/10 06:09:16;;;;;;;12.48;6.38;;;15.40;78.20;;;;;;6184170;23;20028;-85
2023/08/10 06:11:43;;;;;;;16.80;6.80;;;15.60;78.20;;;;;;6184137;23;20415;-85
2023/08/10 06:14:15;;;;;;;14.45;6.88;;;15.80;78.00;;;;;;6159218;23;20020;-86
2023/08/10 06:16:42;;;;;;;14.50;6.78;;;15.90;77.50;;;;;;6183993;23;20025;-86
2023/08/10 06:19:09;;;;;;;15.85;6.68;;;16.00;77.40;;;;;;6183407;23;20028;-86
2023/08/10 06:21:36;;;;;;;17.45;7.63;;;16.20;77.20;;;;;;6135209;23;20028;-86
2023/08/10 06:24:06;;;;;;;11.17;6.10;;;16.40;75.70;;;;;;6134759;23;20021;-86
2023/08/10 06:26:36;;;;;;;13.05;6.63;;;16.60;74.50;;;;;;6159299;23;20343;-86
2023/08/10 06:29:04;;;;;;;11.18;4.38;;;16.60;74.90;;;;;;6159439;23;20032;-85
2023/08/10 06:31:31;;;;;;;9.65;4.53;;;16.70;73.60;;;;;;6134931;23;20045;-86
2023/08/10 06:33:58;;;;;;;9.73;5.18;;;16.80;74.20;;;;;;6184205;23;20025;-86
2023/08/10 06:36:27;;;;;;;12.97;5.93;;;16.80;74.20;;;;;;6159416;23;20024;-86
2023/08/10 06:38:54;;;;;;;12.77;4.90;;;16.80;72.90;;;;;;6134649;23;20471;-86
2023/08/10 06:41:21;;;;;;;11.32;5.38;;;16.80;73.00;;;;;;6159036;23;20056;-85
2023/08/10 06:43:49;;;;;;;12.00;5.35;;;16.80;73.60;;;;;;6134744;23;20017;-86
2023/08/10 06:46:16;;;;;;;11.82;5.63;;;17.00;73.40;;;;;;6159353;23;20017;-85
2023/08/10 06:48:43;;;;;;;11.67;5.87;;;17.10;72.80;;;;;;6160193;23;20021;-85
2023/08/10 06:51:10;;;;;;;13.85;6.28;;;17.20;73.20;;;;;;6185715;23;20371;-85
2023/08/10 06:53:38;;;;;;;12.18;6.38;;;17.30;72.70;;;;;;6161500;23;20410;-85
2023/08/10 06:56:05;;;;;;;13.50;6.03;;;17.40;71.90;;;;;;6136676;23;20048;-85
2023/08/10 06:58:33;;;;;;;12.82;6.80;;;17.50;72.20;;;;;;6136718;23;20021;-85
2023/08/10 07:01:03;;;;;;;12.57;6.10;;;17.50;73.00;;;;;;6161042;23;20013;-85
2023/08/10 07:03:30;;;;;;;10.50;4.68;;;17.50;72.90;;;;;;6188586;23;20436;-85
2023/08/10 07:05:57;;;;;;;9.88;5.20;;;17.50;72.00;;;;;;6166423;23;20067;-85
2023/08/10 07:08:24;;;;;;;10.40;4.75;;;17.50;72.70;;;;;;6191203;23;20103;-85
2023/08/10 07:10:51;;;;;;;12.52;4.88;;;17.40;73.40;;;;;;6166320;23;20051;-86
2023/08/10 07:13:18;;;;;;;10.57;3.77;;;17.40;73.10;;;;;;6165999;23;20020;-86
2023/08/10 07:15:46;;;;;;;10.77;3.38;;;17.50;72.80;;;;;;6215632;23;20485;-85
2023/08/10 07:18:16;;;;;;;6.90;2.90;;;17.50;72.60;;;;;;6190781;23;20502;-86
2023/08/10 07:20:43;;;;;;;5.20;1.83;;;17.60;73.10;;;;;;6190718;23;20074;-85
2023/08/10 07:23:11;;;;;;;7.95;2.15;;;17.60;71.40;;;;;;6190690;23;20047;-85
2023/08/10 07:25:38;;;;;;;9.80;2.80;;;17.50;71.40;;;;;;6165925;23;20078;-85
2023/08/10 07:28:06;;;;;;;7.32;2.35;;;17.50;71.90;;;;;;6165869;23;20056;-85
2023/08/10 07:30:33;;;;;;;7.60;2.78;;;17.60;72.10;;;;;;6166053;23;20035;-85
2023/08/10 07:33:00;;;;;;;8.90;2.90;;;17.50;71.70;;;;;;6166007;23;20096;-85
2023/08/10 07:35:28;;;;;;;8.32;3.33;;;17.60;71.80;;;;;;6190895;23;20052;-86
2023/08/10 07:37:55;;;;;;;9.03;3.90;;;17.60;71.10;;;;;;6191023;23;20023;-85
2023/08/10 07:40:23;;;;;;;9.95;3.70;;;17.60;70.90;;;;;;6165832;23;20436;-86
2023/08/10 07:42:50;;;;;;;9.80;4.05;;;17.80;72.10;;;;;;6165974;23;20013;-85
2023/08/10 07:45:17;;;;;;;9.75;3.65;;;17.90;70.90;;;;;;6165690;23;20023;-85
2023/08/10 07:47:44;;;;;;;9.07;3.63;;;18.00;69.90;;;;;;6165952;23;20021;-86
2023/08/10 07:50:12;;;;;;;7.20;3.20;;;18.00;69.70;;;;;;6190332;23;20021;-85
2023/08/10 07:52:39;;;;;;;10.00;4.40;;;18.10;69.90;;;;;;6190629;23;20021;-85
2023/08/10 07:55:06;;;;;;;10.70;4.10;;;18.20;68.60;;;;;;6165903;23;20473;-85
2023/08/10 07:57:33;;;;;;;10.18;3.88;;;18.30;68.50;;;;;;6190902;23;20020;-86
2023/08/10 08:00:05;;;;;;;9.80;3.95;;;18.40;68.30;;;;;;6165092;23;20025;-85
2023/08/10 08:02:41;;;;;;;9.50;3.73;;;18.30;69.20;;;;;;6192578;23;20459;-85
2023/08/10 08:05:09;;;;;;;9.00;3.75;;;18.30;69.30;;;;;;6165704;23;20048;-86
2023/08/10 08:07:36;;;;;;;9.07;4.15;;;18.20;68.40;;;;;;6165972;23;20024;-85
2023/08/10 08:10:03;;;;;;;9.70;4.45;;;18.30;67.80;;;;;;6190685;23;20016;-86
2023/08/10 08:12:32;;;;;;;8.45;3.70;;;18.50;67.00;;;;;;6165672;23;20024;-86
2023/08/10 08:15:01;;;;;;;8.93;4.37;;;18.20;67.40;;;;;;6165788;23;20103;-86
2023/08/10 08:17:48;;;;;;;9.77;4.20;;;18.00;68.20;;;;;;6190497;23;20023;-85
2023/08/10 08:20:15;;;;;;;10.30;4.32;;;17.90;69.10;;;;;;6165677;23;20016;-85
2023/08/10 08:22:42;;;;;;;10.32;4.60;;;17.80;68.60;;;;;;6190213;23;20024;-85
2023/08/10 08:25:09;;;;;;;9.07;4.60;;;17.70;69.00;;;;;;6190320;23;20021;-86
2023/08/10 08:27:38;;;;;;;10.50;4.70;;;17.80;68.30;;;;;;6190513;23;20013;-86
2023/08/10 08:30:06;;;;;;;9.30;4.55;;;17.80;68.00;;;;;;6215102;23;20024;-86
2023/08/10 08:32:33;;;;;;;10.10;4.47;;;17.80;69.10;;;;;;6190184;23;20021;-86
2023/08/10 08:35:17;;;;;;;9.63;4.78;;;17.90;69.70;;;;;;6190116;23;20476;-86
2023/08/10 08:37:45;;;;;;;10.15;4.90;;;18.00;69.20;;;;;;6165296;23;20024;-86
2023/08/10 08:40:12;;;;;;;9.37;4.50;;;18.30;66.80;;;;;;6214687;23;20066;-86
2023/08/10 08:42:40;;;;;;;9.52;4.82;;;18.50;66.40;;;;;;6190267;23;20021;-85
2023/08/10 08:45:08;;;;;;;8.85;4.45;;;18.60;65.60;;;;;;6190108;23;20099;-85
2023/08/10 08:47:35;;;;;;;7.93;3.45;;;18.80;64.30;;;;;;6190009;23;20122;-86
2023/08/10 08:50:03;;;;;;;8.05;3.45;;;18.90;62.20;;;;;;6164971;23;20025;-86
2023/08/10 08:52:30;;;;;;;6.27;3.20;;;19.00;62.70;;;;;;6189818;23;20103;-86
2023/08/10 08:54:59;;;;;;;7.60;3.10;;;19.10;61.60;;;;;;6165295;23;20477;-86
2023/08/10 08:57:26;;;;;;;9.70;3.58;;;19.00;61.90;;;;;;6189953;23;20023;-86
2023/08/10 08:59:53;;;;;;;6.55;3.40;;;19.10;61.20;;;;;;6189456;23;20022;-86
2023/08/10 09:02:19;;;;;;;6.63;2.28;;;19.30;61.60;;;;;;6189562;23;20017;-86
2023/08/10 09:04:54;;;;;;;4.27;1.80;;;19.50;59.80;;;;;;6159330;23;20071;-85
2023/08/10 09:07:21;;;;;;;6.05;2.60;;;19.50;57.60;;;;;;6184406;23;20028;-86
2023/08/10 09:09:49;;;;;;;7.88;2.75;;;19.50;58.30;;;;;;6184111;23;20017;-86
2023/08/10 09:12:36;;;;;;;5.97;2.92;;;19.40;60.40;;;;;;6184003;23;20032;-85
2023/08/10 09:15:07;;;;;;;5.53;2.45;;;19.10;60.90;;;;;;6159849;23;20095;-86
2023/08/10 09:17:43;;;;;;;7.27;2.40;;;18.90;62.20;;;;;;6159909;23;20017;-86
2023/08/10 09:20:16;;;;;;;6.53;2.45;;;18.80;62.40;;;;;;6159546;23;20020;-86
2023/08/10 09:22:43;;;;;;;4.53;1.75;;;19.10;62.00;;;;;;6160002;23;20013;-86
2023/08/10 09:25:10;;;;;;;3.63;1.38;;;19.30;60.10;;;;;;6159593;23;20017;-86
2023/08/10 09:27:37;;;;;;;3.63;1.38;;;19.60;58.90;;;;;;6184220;23;20025;-86
2023/08/10 09:30:06;;;;;;;5.03;1.30;;;19.90;55.60;;;;;;6159598;23;20033;-86
2023/08/10 09:32:35;;;;;;;2.83;1.00;;;20.10;54.80;;;;;;6159076;23;20024;-86
2023/08/10 09:35:03;;;;;;;3.47;1.23;;;20.30;56.40;;;;;;6159525;23;20025;-86
2023/08/10 09:37:31;;;;;;;3.75;1.00;;;20.30;51.30;;;;;;6184029;23;20023;-85
2023/08/10 09:40:01;;;;;;;4.47;1.27;;;20.30;50.90;;;;;;6158929;23;20028;-85
2023/08/10 09:42:32;;;;;;;3.83;1.20;;;20.30;50.00;;;;;;6184526;23;20510;-85
2023/08/10 09:45:05;;;;;;;4.78;1.73;;;20.40;51.20;;;;;;6184331;23;20051;-86
2023/08/10 09:47:37;;;;;;;5.07;1.33;;;20.40;52.30;;;;;;6184293;23;20017;-86
2023/08/10 09:50:13;;;;;;;4.55;1.40;;;20.50;51.80;;;;;;6159205;23;20017;-86
2023/08/10 09:52:42;;;;;;;3.38;1.35;;;20.60;51.60;;;;;;6159317;23;20106;-85
2023/08/10 09:55:10;;;;;;;3.00;1.10;;;20.80;55.60;;;;;;6159280;23;20029;-85
2023/08/10 09:57:44;;;;;;;3.35;1.38;;;20.70;51.10;;;;;;6159463;23;20452;-85
2023/08/10 10:00:23;;;;;;;3.80;1.65;;;20.80;50.90;;;;;;6159251;23;20024;-85
2023/08/10 10:02:50;;;;;;;5.50;2.05;;;20.80;51.00;;;;;;6134934;23;20013;-85
2023/08/10 10:05:21;;;;;;;3.03;1.50;;;20.90;51.70;;;;;;6188786;23;20017;-85
2023/08/10 10:08:06;;;;;;;4.13;1.50;;;20.90;49.50;;;;;;6215684;23;20013;-85
2023/08/10 10:10:35;;;;;;;4.32;1.35;;;20.90;50.60;;;;;;6189280;23;20355;-85
2023/08/10 10:13:05;;;;;;;5.95;1.60;;;20.90;50.10;;;;;;6188929;23;20020;-85
2023/08/10 10:15:36;;;;;;;4.57;1.40;;;21.10;52.30;;;;;;6213719;23;20055;-85
2023/08/10 10:18:04;;;;;;;3.00;1.20;;;21.10;49.50;;;;;;6164280;23;20023;-85
2023/08/10 10:20:34;;;;;;;4.57;1.43;;;21.20;50.40;;;;;;6189072;23;20332;-85
2023/08/10 10:23:01;;;;;;;4.63;1.70;;;21.00;50.50;;;;;;6213948;23;20505;-85
2023/08/10 10:25:28;;;;;;;6.20;1.95;;;20.80;50.50;;;;;;6213994;23;20084;-85
2023/08/10 10:27:56;;;;;;;4.20;1.50;;;20.70;52.10;;;;;;6164428;23;20502;-85
2023/08/10 10:30:24;;;;;;;4.20;1.48;;;20.60;51.90;;;;;;6213837;23;20020;-85
2023/08/10 10:32:52;;;;;;;5.33;1.50;;;20.50;52.10;;;;;;6213918;23;20075;-85
2023/08/10 10:35:37;;;;;;;3.65;1.50;;;20.40;52.20;;;;;;6188972;23;20027;-85
2023/08/10 10:38:06;;;;;;;4.43;1.27;;;20.10;54.10;;;;;;6213595;23;20083;-85
2023/08/10 10:40:33;;;;;;;4.10;1.30;;;19.90;49.90;;;;;;6164029;23;20043;-85
2023/08/10 10:43:07;;;;;;;3.55;1.33;;;20.10;52.80;;;;;;6215512;23;20016;-85
2023/08/10 10:45:40;;;;;;;3.37;1.10;;;20.40;50.00;;;;;;6213870;23;20451;-85
2023/08/10 10:48:10;;;;;;;2.85;1.00;;;20.80;51.00;;;;;;6188471;23;20044;-85
2023/08/10 10:50:38;;;;;;;8.75;1.70;;;21.00;47.20;;;;;;6188954;23;20024;-85
2023/08/10 10:53:09;;;;;;;5.05;1.63;;;21.10;52.10;;;;;;6213505;23;20024;-85
2023/08/10 10:55:43;;;;;;;5.20;1.77;;;21.30;53.30;;;;;;6188675;23;20531;-85
2023/08/10 10:58:15;;;;;;;4.47;1.70;;;21.50;54.60;;;;;;6188841;23;20075;-85
2023/08/10 11:00:44;;;;;;;4.43;1.50;;;21.70;53.70;;;;;;6164040;23;20103;-85
2023/08/10 11:03:15;;;;;;;6.22;1.05;;;21.80;50.00;;;;;;6212696;23;20512;-85
2023/08/10 11:05:42;;;;;;;4.25;1.30;;;21.80;48.30;;;;;;6159245;23;20048;-85
2023/08/10 11:08:09;;;;;;;4.35;1.10;;;21.80;46.00;;;;;;6151746;23;20023;-85
2023/08/10 11:10:39;;;;;;;3.43;1.20;;;21.80;44.90;;;;;;6188731;23;20021;-85
2023/08/10 11:13:08;;;;;;;3.53;1.27;;;21.80;43.00;;;;;;6188470;23;20447;-85
2023/08/10 11:15:36;;;;;;;4.35;1.20;;;21.90;44.30;;;;;;6188580;23;20025;-85
2023/08/10 11:18:11;;;;;;;3.28;1.30;;;21.80;44.80;;;;;;6164155;23;20055;-85
2023/08/10 11:20:47;;;;;;;4.60;1.23;;;21.80;45.10;;;;;;6158586;23;20452;-85
2023/08/10 11:23:15;;;;;;;3.27;1.00;;;22.00;45.20;;;;;;6163905;23;20028;-85
2023/08/10 11:25:49;;;;;;;3.83;1.30;;;22.10;46.60;;;;;;6158718;23;20028;-85
2023/08/10 11:28:19;;;;;;;2.88;1.10;;;22.30;47.70;;;;;;6148724;23;20017;-85
2023/08/10 11:30:47;;;;;;;5.20;1.30;;;22.20;48.50;;;;;;6154249;23;20112;-85
2023/08/10 11:33:15;;;;;;;6.45;1.48;;;22.10;48.00;;;;;;6152691;23;20025;-85
2023/08/10 11:35:48;;;;;;;3.33;1.30;;;22.20;48.60;;;;;;6184930;23;20032;-85
2023/08/10 11:38:15;;;;;;;3.65;1.42;;;22.10;44.40;;;;;;6215696;23;20489;-85
2023/08/10 11:40:42;;;;;;;3.38;1.27;;;22.00;46.50;;;;;;6165536;23;20051;-85
2023/08/10 11:43:12;;;;;;;5.15;1.20;;;22.10;46.80;;;;;;6148339;23;20143;-85
2023/08/10 11:45:39;;;;;;;3.72;1.25;;;22.30;46.60;;;;;;6159703;23;20066;-85
2023/08/10 11:48:11;;;;;;;3.37;1.40;;;22.40;47.50;;;;;;6215479;23;20092;-85
2023/08/10 11:50:39;;;;;;;3.28;1.10;;;22.50;47.20;;;;;;6190319;23;20069;-85
2023/08/10 11:53:15;;;;;;;3.75;1.10;;;22.50;42.80;;;;;;6165701;23;20022;-85
2023/08/10 11:55:44;;;;;;;3.10;1.00;;;22.50;42.30;;;;;;6190632;23;20300;-85
2023/08/10 11:58:13;;;;;;;4.30;1.20;;;22.60;41.70;;;;;;6190425;23;20016;-85
2023/08/10 12:00:53;;;;;;;2.93;1.07;;;22.70;43.10;;;;;;6190656;23;20418;-85
2023/08/10 12:03:25;;;;;;;2.88;1.00;;;22.90;46.00;;;;;;6159258;23;20451;-85
2023/08/10 12:06:06;;;;;;;3.65;1.30;;;23.10;43.70;;;;;;6161002;23;20095;-85
2023/08/10 12:08:38;;;;;;;5.18;1.63;;;23.10;44.50;;;;;;6135877;23;20063;-86
2023/08/10 12:11:09;;;;;;;6.45;1.40;;;23.00;46.40;;;;;;6160439;23;20028;-85
2023/08/10 12:13:46;;;;;;;5.07;1.30;;;22.40;45.20;;;;;;6160526;23;20047;-85
2023/08/10 12:16:17;;;;;;;3.22;1.20;;;21.60;46.60;;;;;;6160690;23;20100;-85
2023/08/10 12:18:45;;;;;;;4.03;1.40;;;21.20;47.80;;;;;;6160045;23;20028;-86
2023/08/10 12:21:13;;;;;;;3.30;1.02;;;21.00;48.10;;;;;;6135808;23;20029;-85
2023/08/10 12:23:40;;;;;;;4.45;1.50;;;20.80;49.20;;;;;;6135715;23;20017;-85
2023/08/10 12:26:07;;;;;;;4.53;1.37;;;20.80;47.40;;;;;;6135936;23;20017;-85
2023/08/10 12:28:34;;;;;;;3.88;1.30;;;21.00;48.30;;;;;;6135601;23;20013;-85
2023/08/10 12:31:08;;;;;;;5.28;1.20;;;21.30;47.60;;;;;;6135938;23;20042;-86
2023/08/10 12:33:40;;;;;;;4.93;1.10;;;21.70;47.20;;;;;;6184808;23;20383;-85
2023/08/10 12:36:07;;;;;;;3.55;1.20;;;22.10;46.00;;;;;;6159930;23;20028;-86
2023/08/10 12:38:34;;;;;;;4.17;1.23;;;22.50;47.80;;;;;;6135460;23;20025;-85
2023/08/10 12:41:02;;;;;;;3.55;1.15;;;22.70;44.20;;;;;;6135609;23;20021;-85
2023/08/10 12:43:29;;;;;;;3.75;1.30;;;22.90;43.40;;;;;;6135440;23;20021;-85
2023/08/10 12:45:56;;;;;;;5.03;1.33;;;22.90;41.20;;;;;;6135531;23;20055;-89
2023/08/10 12:48:23;;;;;;;3.05;1.13;;;23.00;40.10;;;;;;6161091;23;20020;-89
2023/08/10 12:55:40;;;;;;;3.63;1.20;;;23.10;41.20;;;;;;6187654;23;20060;-88
2023/08/10 12:58:11;;;;;;;6.10;1.20;;;23.20;41.00;;;;;;6160866;23;20025;-88
2023/08/10 13:00:38;;;;;;;4.50;1.17;;;23.30;41.60;;;;;;6136846;23;20473;-89